sensor_id;sensor_type;location;lat;lon;timestamp;P1;durP1;ratioP1;P2;durP2;ratioP2
79631;SDS011;69108;41.120;16.874;2023-06-14T00:02:25;4.72;;;1.98;;
79631;SDS011;69108;41.120;16.874;2023-06-14T00:04:52;7.13;;;2.55;;
79631;SDS011;69108;41.120;16.874;2023-06-14T00:07:21;4.40;;;1.92;;
79631;SDS011;69108;41.120;16.874;2023-06-14T00:10:02;6.22;;;2.20;;
79631;SDS011;69108;41.120;16.874;2023-06-14T00:12:30;5.85;;;2.03;;
79631;SDS011;69108;41.120;16.874;2023-06-14T00:14:58;6.10;;;2.28;;
79631;SDS011;69108;41.120;16.874;2023-06-14T00:17:26;4.78;;;1.88;;
79631;SDS011;69108;41.120;16.874;2023-06-14T00:19:55;4.72;;;1.90;;
79631;SDS011;69108;41.120;16.874;2023-06-14T00:22:23;6.55;;;2.58;;
79631;SDS011;69108;41.120;16.874;2023-06-14T00:24:51;5.03;;;1.90;;
79631;SDS011;69108;41.120;16.874;2023-06-14T00:27:20;4.18;;;1.75;;
79631;SDS011;69108;41.120;16.874;2023-06-14T00:29:47;6.32;;;2.05;;
79631;SDS011;69108;41.120;16.874;2023-06-14T00:32:14;5.28;;;2.00;;
79631;SDS011;69108;41.120;16.874;2023-06-14T00:34:53;5.65;;;2.10;;
79631;SDS011;69108;41.120;16.874;2023-06-14T00:37:21;6.00;;;2.10;;
79631;SDS011;69108;41.120;16.874;2023-06-14T00:42:24;5.07;;;1.88;;
79631;SDS011;69108;41.120;16.874;2023-06-14T00:44:54;4.32;;;1.70;;
79631;SDS011;69108;41.120;16.874;2023-06-14T00:47:23;6.15;;;2.03;;
79631;SDS011;69108;41.120;16.874;2023-06-14T00:49:50;5.70;;;2.58;;
79631;SDS011;69108;41.120;16.874;2023-06-14T00:52:18;5.63;;;1.80;;
79631;SDS011;69108;41.120;16.874;2023-06-14T00:54:49;8.00;;;1.92;;
79631;SDS011;69108;41.120;16.874;2023-06-14T00:57:17;4.53;;;1.90;;
79631;SDS011;69108;41.120;16.874;2023-06-14T00:59:46;3.72;;;1.40;;
79631;SDS011;69108;41.120;16.874;2023-06-14T01:02:17;4.63;;;1.80;;
79631;SDS011;69108;41.120;16.874;2023-06-14T01:04:49;5.72;;;1.83;;
79631;SDS011;69108;41.120;16.874;2023-06-14T01:07:20;5.50;;;2.08;;
79631;SDS011;69108;41.120;16.874;2023-06-14T01:09:58;6.28;;;1.90;;
79631;SDS011;69108;41.120;16.874;2023-06-14T01:12:31;4.60;;;1.80;;
79631;SDS011;69108;41.120;16.874;2023-06-14T01:15:07;4.63;;;1.98;;
79631;SDS011;69108;41.120;16.874;2023-06-14T01:17:34;4.05;;;1.55;;
79631;SDS011;69108;41.120;16.874;2023-06-14T01:20:07;3.83;;;1.63;;
79631;SDS011;69108;41.120;16.874;2023-06-14T01:22:37;6.50;;;1.90;;
79631;SDS011;69108;41.120;16.874;2023-06-14T01:25:12;6.30;;;2.30;;
79631;SDS011;69108;41.120;16.874;2023-06-14T01:27:41;6.25;;;2.13;;
79631;SDS011;69108;41.120;16.874;2023-06-14T01:30:10;6.38;;;2.47;;
79631;SDS011;69108;41.120;16.874;2023-06-14T01:32:41;7.78;;;3.10;;
79631;SDS011;69108;41.120;16.874;2023-06-14T01:35:10;6.97;;;3.10;;
79631;SDS011;69108;41.120;16.874;2023-06-14T01:37:37;9.90;;;3.38;;
79631;SDS011;69108;41.120;16.874;2023-06-14T01:40:18;8.43;;;4.22;;
79631;SDS011;69108;41.120;16.874;2023-06-14T01:42:46;8.20;;;4.25;;
79631;SDS011;69108;41.120;16.874;2023-06-14T01:45:15;8.32;;;4.40;;
79631;SDS011;69108;41.120;16.874;2023-06-14T01:47:43;8.88;;;4.25;;
79631;SDS011;69108;41.120;16.874;2023-06-14T01:50:11;10.68;;;4.22;;
79631;SDS011;69108;41.120;16.874;2023-06-14T01:52:39;8.80;;;4.18;;
79631;SDS011;69108;41.120;16.874;2023-06-14T01:55:13;9.00;;;3.70;;
79631;SDS011;69108;41.120;16.874;2023-06-14T01:57:42;9.73;;;3.80;;
79631;SDS011;69108;41.120;16.874;2023-06-14T02:00:10;8.90;;;3.80;;
79631;SDS011;69108;41.120;16.874;2023-06-14T02:02:40;11.05;;;4.40;;
79631;SDS011;69108;41.120;16.874;2023-06-14T02:05:12;9.68;;;4.22;;
79631;SDS011;69108;41.120;16.874;2023-06-14T02:07:45;9.18;;;3.72;;
79631;SDS011;69108;41.120;16.874;2023-06-14T02:13:06;9.30;;;3.67;;
79631;SDS011;69108;41.120;16.874;2023-06-14T02:15:33;6.88;;;3.70;;
79631;SDS011;69108;41.120;16.874;2023-06-14T02:18:00;7.60;;;3.63;;
79631;SDS011;69108;41.120;16.874;2023-06-14T02:20:29;7.18;;;3.17;;
79631;SDS011;69108;41.120;16.874;2023-06-14T02:22:57;7.47;;;3.70;;
79631;SDS011;69108;41.120;16.874;2023-06-14T02:25:25;6.90;;;3.17;;
79631;SDS011;69108;41.120;16.874;2023-06-14T02:27:56;9.52;;;3.22;;
79631;SDS011;69108;41.120;16.874;2023-06-14T02:30:29;9.75;;;3.83;;
79631;SDS011;69108;41.120;16.874;2023-06-14T02:32:57;7.10;;;3.00;;
79631;SDS011;69108;41.120;16.874;2023-06-14T02:35:25;7.20;;;2.85;;
79631;SDS011;69108;41.120;16.874;2023-06-14T02:37:56;11.23;;;3.47;;
79631;SDS011;69108;41.120;16.874;2023-06-14T02:40:26;6.28;;;3.47;;
79631;SDS011;69108;41.120;16.874;2023-06-14T02:42:55;7.65;;;3.17;;
79631;SDS011;69108;41.120;16.874;2023-06-14T02:45:24;7.82;;;3.70;;
79631;SDS011;69108;41.120;16.874;2023-06-14T02:47:51;6.03;;;3.15;;
79631;SDS011;69108;41.120;16.874;2023-06-14T02:50:18;11.05;;;3.00;;
79631;SDS011;69108;41.120;16.874;2023-06-14T02:52:46;8.73;;;3.00;;
79631;SDS011;69108;41.120;16.874;2023-06-14T02:55:14;7.15;;;2.63;;
79631;SDS011;69108;41.120;16.874;2023-06-14T02:57:47;10.15;;;3.05;;
79631;SDS011;69108;41.120;16.874;2023-06-14T03:00:21;5.75;;;2.60;;
79631;SDS011;69108;41.120;16.874;2023-06-14T03:02:48;7.25;;;2.42;;
79631;SDS011;69108;41.120;16.874;2023-06-14T03:05:16;5.82;;;2.38;;
79631;SDS011;69108;41.120;16.874;2023-06-14T03:07:46;5.95;;;2.47;;
79631;SDS011;69108;41.120;16.874;2023-06-14T03:10:15;5.00;;;1.80;;
79631;SDS011;69108;41.120;16.874;2023-06-14T03:12:45;5.07;;;2.13;;
79631;SDS011;69108;41.120;16.874;2023-06-14T03:15:12;4.50;;;1.75;;
79631;SDS011;69108;41.120;16.874;2023-06-14T03:17:44;8.13;;;2.45;;
79631;SDS011;69108;41.120;16.874;2023-06-14T03:20:15;8.45;;;2.28;;
79631;SDS011;69108;41.120;16.874;2023-06-14T03:22:44;7.18;;;2.28;;
79631;SDS011;69108;41.120;16.874;2023-06-14T03:25:12;6.93;;;2.20;;
79631;SDS011;69108;41.120;16.874;2023-06-14T03:30:07;8.32;;;2.20;;
79631;SDS011;69108;41.120;16.874;2023-06-14T03:32:36;7.28;;;2.97;;
79631;SDS011;69108;41.120;16.874;2023-06-14T03:35:05;7.72;;;2.30;;
79631;SDS011;69108;41.120;16.874;2023-06-14T03:37:34;9.55;;;2.97;;
79631;SDS011;69108;41.120;16.874;2023-06-14T03:40:01;6.10;;;2.28;;
79631;SDS011;69108;41.120;16.874;2023-06-14T03:42:31;7.70;;;2.58;;
79631;SDS011;69108;41.120;16.874;2023-06-14T03:45:01;8.25;;;2.72;;
79631;SDS011;69108;41.120;16.874;2023-06-14T03:47:28;7.53;;;3.17;;
79631;SDS011;69108;41.120;16.874;2023-06-14T03:50:01;7.55;;;2.60;;
79631;SDS011;69108;41.120;16.874;2023-06-14T03:52:30;5.63;;;2.30;;
79631;SDS011;69108;41.120;16.874;2023-06-14T03:54:58;8.52;;;3.20;;
79631;SDS011;69108;41.120;16.874;2023-06-14T03:57:26;6.78;;;2.53;;
79631;SDS011;69108;41.120;16.874;2023-06-14T03:59:57;5.57;;;2.65;;
79631;SDS011;69108;41.120;16.874;2023-06-14T04:02:24;6.43;;;2.42;;
79631;SDS011;69108;41.120;16.874;2023-06-14T04:04:53;5.50;;;2.40;;
79631;SDS011;69108;41.120;16.874;2023-06-14T04:07:22;10.77;;;2.90;;
79631;SDS011;69108;41.120;16.874;2023-06-14T04:10:07;8.00;;;3.35;;
79631;SDS011;69108;41.120;16.874;2023-06-14T04:12:38;8.52;;;3.33;;
79631;SDS011;69108;41.120;16.874;2023-06-14T04:15:05;14.63;;;4.82;;
79631;SDS011;69108;41.120;16.874;2023-06-14T04:17:36;11.82;;;4.38;;
79631;SDS011;69108;41.120;16.874;2023-06-14T04:20:11;13.80;;;5.43;;
79631;SDS011;69108;41.120;16.874;2023-06-14T04:22:42;12.75;;;5.25;;
79631;SDS011;69108;41.120;16.874;2023-06-14T04:25:15;13.18;;;4.35;;
79631;SDS011;69108;41.120;16.874;2023-06-14T04:27:43;12.90;;;4.80;;
79631;SDS011;69108;41.120;16.874;2023-06-14T04:30:12;12.48;;;4.00;;
79631;SDS011;69108;41.120;16.874;2023-06-14T04:32:42;12.50;;;4.20;;
79631;SDS011;69108;41.120;16.874;2023-06-14T04:35:11;10.85;;;3.97;;
79631;SDS011;69108;41.120;16.874;2023-06-14T04:37:42;10.18;;;4.25;;
79631;SDS011;69108;41.120;16.874;2023-06-14T04:40:10;7.82;;;3.05;;
79631;SDS011;69108;41.120;16.874;2023-06-14T04:42:39;8.90;;;3.10;;
79631;SDS011;69108;41.120;16.874;2023-06-14T04:45:10;8.38;;;3.03;;
79631;SDS011;69108;41.120;16.874;2023-06-14T04:47:38;9.50;;;3.40;;
79631;SDS011;69108;41.120;16.874;2023-06-14T04:52:32;8.25;;;3.88;;
79631;SDS011;69108;41.120;16.874;2023-06-14T04:55:00;9.98;;;3.50;;
79631;SDS011;69108;41.120;16.874;2023-06-14T04:59:57;15.50;;;4.05;;
79631;SDS011;69108;41.120;16.874;2023-06-14T05:02:27;11.35;;;3.95;;
79631;SDS011;69108;41.120;16.874;2023-06-14T05:04:57;10.43;;;4.00;;
79631;SDS011;69108;41.120;16.874;2023-06-14T05:07:27;10.65;;;5.40;;
79631;SDS011;69108;41.120;16.874;2023-06-14T05:09:54;11.75;;;4.90;;
79631;SDS011;69108;41.120;16.874;2023-06-14T05:12:22;11.57;;;4.30;;
79631;SDS011;69108;41.120;16.874;2023-06-14T05:14:49;7.25;;;3.55;;
79631;SDS011;69108;41.120;16.874;2023-06-14T05:17:21;14.65;;;3.97;;
79631;SDS011;69108;41.120;16.874;2023-06-14T05:19:48;10.77;;;4.65;;
79631;SDS011;69108;41.120;16.874;2023-06-14T05:22:15;8.30;;;3.92;;
79631;SDS011;69108;41.120;16.874;2023-06-14T05:24:44;7.80;;;3.60;;
79631;SDS011;69108;41.120;16.874;2023-06-14T05:27:13;11.68;;;3.65;;
79631;SDS011;69108;41.120;16.874;2023-06-14T05:29:40;9.23;;;4.18;;
79631;SDS011;69108;41.120;16.874;2023-06-14T05:32:08;13.93;;;3.88;;
79631;SDS011;69108;41.120;16.874;2023-06-14T05:34:42;11.13;;;4.57;;
79631;SDS011;69108;41.120;16.874;2023-06-14T05:37:10;9.02;;;4.07;;
79631;SDS011;69108;41.120;16.874;2023-06-14T05:39:40;13.70;;;4.78;;
79631;SDS011;69108;41.120;16.874;2023-06-14T05:42:10;11.23;;;4.28;;
79631;SDS011;69108;41.120;16.874;2023-06-14T05:44:37;8.73;;;4.05;;
79631;SDS011;69108;41.120;16.874;2023-06-14T05:47:05;12.52;;;5.15;;
79631;SDS011;69108;41.120;16.874;2023-06-14T05:49:34;11.82;;;5.05;;
79631;SDS011;69108;41.120;16.874;2023-06-14T05:52:05;8.60;;;4.35;;
79631;SDS011;69108;41.120;16.874;2023-06-14T05:54:32;12.18;;;5.65;;
79631;SDS011;69108;41.120;16.874;2023-06-14T05:57:00;9.52;;;4.60;;
79631;SDS011;69108;41.120;16.874;2023-06-14T05:59:31;11.45;;;4.80;;
79631;SDS011;69108;41.120;16.874;2023-06-14T06:01:59;12.07;;;5.22;;
79631;SDS011;69108;41.120;16.874;2023-06-14T06:04:33;9.48;;;4.78;;
79631;SDS011;69108;41.120;16.874;2023-06-14T06:07:02;8.93;;;5.13;;
79631;SDS011;69108;41.120;16.874;2023-06-14T06:09:30;9.27;;;4.93;;
79631;SDS011;69108;41.120;16.874;2023-06-14T06:11:58;10.43;;;4.73;;
79631;SDS011;69108;41.120;16.874;2023-06-14T06:14:31;10.10;;;4.82;;
79631;SDS011;69108;41.120;16.874;2023-06-14T06:17:02;9.70;;;4.40;;
79631;SDS011;69108;41.120;16.874;2023-06-14T06:19:29;11.55;;;5.95;;
79631;SDS011;69108;41.120;16.874;2023-06-14T06:24:26;7.65;;;4.15;;
79631;SDS011;69108;41.120;16.874;2023-06-14T06:26:53;12.45;;;5.30;;
79631;SDS011;69108;41.120;16.874;2023-06-14T06:29:24;13.40;;;6.25;;
79631;SDS011;69108;41.120;16.874;2023-06-14T06:31:52;9.00;;;4.53;;
79631;SDS011;69108;41.120;16.874;2023-06-14T06:34:21;11.07;;;5.20;;
79631;SDS011;69108;41.120;16.874;2023-06-14T06:36:48;11.60;;;5.28;;
79631;SDS011;69108;41.120;16.874;2023-06-14T06:39:16;8.27;;;4.65;;
79631;SDS011;69108;41.120;16.874;2023-06-14T06:44:39;10.68;;;4.65;;
79631;SDS011;69108;41.120;16.874;2023-06-14T06:47:07;11.95;;;7.15;;
79631;SDS011;69108;41.120;16.874;2023-06-14T06:49:37;11.88;;;5.68;;
79631;SDS011;69108;41.120;16.874;2023-06-14T06:52:04;9.85;;;5.28;;
79631;SDS011;69108;41.120;16.874;2023-06-14T06:54:33;7.05;;;4.13;;
79631;SDS011;69108;41.120;16.874;2023-06-14T06:57:04;7.88;;;4.55;;
79631;SDS011;69108;41.120;16.874;2023-06-14T06:59:34;10.15;;;5.38;;
79631;SDS011;69108;41.120;16.874;2023-06-14T07:02:02;11.73;;;6.25;;
79631;SDS011;69108;41.120;16.874;2023-06-14T07:04:30;13.48;;;6.32;;
79631;SDS011;69108;41.120;16.874;2023-06-14T07:06:58;10.35;;;4.88;;
79631;SDS011;69108;41.120;16.874;2023-06-14T07:09:26;7.65;;;4.55;;
79631;SDS011;69108;41.120;16.874;2023-06-14T07:11:54;7.28;;;4.00;;
79631;SDS011;69108;41.120;16.874;2023-06-14T07:14:26;15.02;;;6.95;;
79631;SDS011;69108;41.120;16.874;2023-06-14T07:16:59;10.38;;;5.28;;
79631;SDS011;69108;41.120;16.874;2023-06-14T07:19:27;10.60;;;5.60;;
79631;SDS011;69108;41.120;16.874;2023-06-14T07:21:55;8.95;;;4.82;;
79631;SDS011;69108;41.120;16.874;2023-06-14T07:24:28;8.10;;;4.05;;
79631;SDS011;69108;41.120;16.874;2023-06-14T07:26:55;6.63;;;3.35;;
79631;SDS011;69108;41.120;16.874;2023-06-14T07:29:25;6.28;;;3.97;;
79631;SDS011;69108;41.120;16.874;2023-06-14T07:32:07;11.90;;;4.75;;
79631;SDS011;69108;41.120;16.874;2023-06-14T07:34:34;6.50;;;3.97;;
79631;SDS011;69108;41.120;16.874;2023-06-14T07:37:01;10.32;;;5.32;;
79631;SDS011;69108;41.120;16.874;2023-06-14T07:39:28;7.68;;;4.13;;
79631;SDS011;69108;41.120;16.874;2023-06-14T07:41:56;8.43;;;4.60;;
79631;SDS011;69108;41.120;16.874;2023-06-14T07:44:24;9.05;;;3.90;;
79631;SDS011;69108;41.120;16.874;2023-06-14T07:46:51;7.45;;;3.88;;
79631;SDS011;69108;41.120;16.874;2023-06-14T07:49:20;9.07;;;4.68;;
79631;SDS011;69108;41.120;16.874;2023-06-14T07:51:47;7.68;;;4.43;;
79631;SDS011;69108;41.120;16.874;2023-06-14T07:54:16;8.10;;;4.28;;
79631;SDS011;69108;41.120;16.874;2023-06-14T07:56:44;7.28;;;3.97;;
79631;SDS011;69108;41.120;16.874;2023-06-14T07:59:12;10.48;;;6.05;;
79631;SDS011;69108;41.120;16.874;2023-06-14T08:01:39;8.68;;;3.72;;
79631;SDS011;69108;41.120;16.874;2023-06-14T08:04:13;11.32;;;6.75;;
79631;SDS011;69108;41.120;16.874;2023-06-14T08:06:45;10.45;;;4.03;;
79631;SDS011;69108;41.120;16.874;2023-06-14T08:09:13;12.02;;;5.70;;
79631;SDS011;69108;41.120;16.874;2023-06-14T08:11:40;8.00;;;3.95;;
79631;SDS011;69108;41.120;16.874;2023-06-14T08:14:08;7.32;;;3.50;;
79631;SDS011;69108;41.120;16.874;2023-06-14T08:16:36;7.10;;;3.65;;
79631;SDS011;69108;41.120;16.874;2023-06-14T08:19:06;10.70;;;4.55;;
79631;SDS011;69108;41.120;16.874;2023-06-14T08:21:33;6.95;;;3.47;;
79631;SDS011;69108;41.120;16.874;2023-06-14T08:24:07;5.38;;;3.05;;
79631;SDS011;69108;41.120;16.874;2023-06-14T08:26:37;11.30;;;5.40;;
79631;SDS011;69108;41.120;16.874;2023-06-14T08:29:07;6.47;;;3.38;;
79631;SDS011;69108;41.120;16.874;2023-06-14T08:31:34;7.55;;;3.42;;
79631;SDS011;69108;41.120;16.874;2023-06-14T08:34:01;5.45;;;3.05;;
79631;SDS011;69108;41.120;16.874;2023-06-14T08:36:31;6.88;;;3.30;;
79631;SDS011;69108;41.120;16.874;2023-06-14T08:38:58;4.90;;;3.10;;
79631;SDS011;69108;41.120;16.874;2023-06-14T08:41:31;6.60;;;3.30;;
79631;SDS011;69108;41.120;16.874;2023-06-14T08:44:10;6.15;;;3.45;;
79631;SDS011;69108;41.120;16.874;2023-06-14T08:46:38;8.27;;;4.32;;
79631;SDS011;69108;41.120;16.874;2023-06-14T08:49:05;8.68;;;3.47;;
79631;SDS011;69108;41.120;16.874;2023-06-14T08:51:35;8.00;;;3.65;;
79631;SDS011;69108;41.120;16.874;2023-06-14T08:54:05;6.75;;;3.50;;
79631;SDS011;69108;41.120;16.874;2023-06-14T08:56:39;6.97;;;3.42;;
79631;SDS011;69108;41.120;16.874;2023-06-14T08:59:09;5.90;;;3.33;;
79631;SDS011;69108;41.120;16.874;2023-06-14T09:01:36;6.47;;;3.28;;
79631;SDS011;69108;41.120;16.874;2023-06-14T09:04:05;6.05;;;3.00;;
79631;SDS011;69108;41.120;16.874;2023-06-14T09:06:33;7.68;;;3.72;;
79631;SDS011;69108;41.120;16.874;2023-06-14T09:09:02;8.73;;;3.42;;
79631;SDS011;69108;41.120;16.874;2023-06-14T09:11:30;5.70;;;3.25;;
79631;SDS011;69108;41.120;16.874;2023-06-14T09:14:00;6.57;;;3.65;;
79631;SDS011;69108;41.120;16.874;2023-06-14T09:16:36;6.55;;;2.97;;
79631;SDS011;69108;41.120;16.874;2023-06-14T09:19:03;5.75;;;3.53;;
79631;SDS011;69108;41.120;16.874;2023-06-14T09:21:35;6.85;;;3.42;;
79631;SDS011;69108;41.120;16.874;2023-06-14T09:24:06;6.28;;;3.55;;
79631;SDS011;69108;41.120;16.874;2023-06-14T09:26:46;7.15;;;3.40;;
79631;SDS011;69108;41.120;16.874;2023-06-14T09:29:17;9.75;;;3.38;;
79631;SDS011;69108;41.120;16.874;2023-06-14T09:31:47;5.88;;;3.17;;
79631;SDS011;69108;41.120;16.874;2023-06-14T09:34:16;6.18;;;3.35;;
79631;SDS011;69108;41.120;16.874;2023-06-14T09:36:48;7.68;;;4.05;;
79631;SDS011;69108;41.120;16.874;2023-06-14T09:39:17;9.13;;;3.38;;
79631;SDS011;69108;41.120;16.874;2023-06-14T09:41:44;5.85;;;3.15;;
79631;SDS011;69108;41.120;16.874;2023-06-14T09:44:12;6.80;;;4.03;;
79631;SDS011;69108;41.120;16.874;2023-06-14T09:46:47;7.70;;;3.40;;
79631;SDS011;69108;41.120;16.874;2023-06-14T09:49:15;7.05;;;3.78;;
79631;SDS011;69108;41.120;16.874;2023-06-14T09:51:43;5.13;;;3.28;;
79631;SDS011;69108;41.120;16.874;2023-06-14T09:54:14;12.55;;;3.80;;
79631;SDS011;69108;41.120;16.874;2023-06-14T09:56:45;9.13;;;3.88;;
79631;SDS011;69108;41.120;16.874;2023-06-14T09:59:19;6.50;;;3.00;;
79631;SDS011;69108;41.120;16.874;2023-06-14T10:01:57;10.80;;;4.35;;
79631;SDS011;69108;41.120;16.874;2023-06-14T10:04:25;7.30;;;3.83;;
79631;SDS011;69108;41.120;16.874;2023-06-14T10:06:57;7.60;;;3.95;;
79631;SDS011;69108;41.120;16.874;2023-06-14T10:09:26;6.80;;;3.95;;
79631;SDS011;69108;41.120;16.874;2023-06-14T10:11:53;11.02;;;5.07;;
79631;SDS011;69108;41.120;16.874;2023-06-14T10:14:22;9.27;;;4.40;;
79631;SDS011;69108;41.120;16.874;2023-06-14T10:16:52;10.05;;;4.88;;
79631;SDS011;69108;41.120;16.874;2023-06-14T10:19:29;9.40;;;4.82;;
79631;SDS011;69108;41.120;16.874;2023-06-14T10:22:02;10.90;;;4.78;;
79631;SDS011;69108;41.120;16.874;2023-06-14T10:24:33;9.18;;;4.30;;
79631;SDS011;69108;41.120;16.874;2023-06-14T10:27:09;8.10;;;3.97;;
79631;SDS011;69108;41.120;16.874;2023-06-14T10:30:01;9.05;;;4.47;;
79631;SDS011;69108;41.120;16.874;2023-06-14T10:32:31;9.50;;;4.30;;
79631;SDS011;69108;41.120;16.874;2023-06-14T10:34:59;9.18;;;3.85;;
79631;SDS011;69108;41.120;16.874;2023-06-14T10:40:01;6.60;;;3.75;;
79631;SDS011;69108;41.120;16.874;2023-06-14T10:42:40;8.65;;;4.03;;
79631;SDS011;69108;41.120;16.874;2023-06-14T10:45:18;7.88;;;4.10;;
79631;SDS011;69108;41.120;16.874;2023-06-14T10:47:47;7.70;;;4.30;;
79631;SDS011;69108;41.120;16.874;2023-06-14T10:50:17;12.35;;;4.65;;
79631;SDS011;69108;41.120;16.874;2023-06-14T10:52:57;29.27;;;7.78;;
79631;SDS011;69108;41.120;16.874;2023-06-14T10:55:25;40.03;;;10.20;;
79631;SDS011;69108;41.120;16.874;2023-06-14T10:57:54;52.63;;;12.70;;
79631;SDS011;69108;41.120;16.874;2023-06-14T11:00:23;31.58;;;8.02;;
79631;SDS011;69108;41.120;16.874;2023-06-14T11:05:58;25.77;;;8.98;;
79631;SDS011;69108;41.120;16.874;2023-06-14T11:11:29;22.80;;;8.40;;
79631;SDS011;69108;41.120;16.874;2023-06-14T11:13:59;20.90;;;8.15;;
79631;SDS011;69108;41.120;16.874;2023-06-14T11:16:27;19.52;;;9.05;;
79631;SDS011;69108;41.120;16.874;2023-06-14T11:18:55;29.63;;;9.80;;
79631;SDS011;69108;41.120;16.874;2023-06-14T11:21:23;29.88;;;9.85;;
79631;SDS011;69108;41.120;16.874;2023-06-14T11:23:56;19.38;;;9.18;;
79631;SDS011;69108;41.120;16.874;2023-06-14T11:26:24;21.27;;;9.20;;
79631;SDS011;69108;41.120;16.874;2023-06-14T11:28:56;18.50;;;9.23;;
79631;SDS011;69108;41.120;16.874;2023-06-14T11:31:25;20.50;;;10.52;;
79631;SDS011;69108;41.120;16.874;2023-06-14T11:33:53;20.38;;;9.27;;
79631;SDS011;69108;41.120;16.874;2023-06-14T11:36:23;20.65;;;10.65;;
79631;SDS011;69108;41.120;16.874;2023-06-14T11:38:57;21.90;;;10.60;;
79631;SDS011;69108;41.120;16.874;2023-06-14T11:43:52;22.10;;;8.90;;
79631;SDS011;69108;41.120;16.874;2023-06-14T11:46:20;20.73;;;9.85;;
79631;SDS011;69108;41.120;16.874;2023-06-14T11:48:50;17.55;;;9.07;;
79631;SDS011;69108;41.120;16.874;2023-06-14T11:54:07;18.25;;;9.15;;
79631;SDS011;69108;41.120;16.874;2023-06-14T11:56:36;23.88;;;9.40;;
79631;SDS011;69108;41.120;16.874;2023-06-14T11:59:04;16.27;;;8.38;;
79631;SDS011;69108;41.120;16.874;2023-06-14T12:01:32;25.77;;;9.52;;
79631;SDS011;69108;41.120;16.874;2023-06-14T12:04:08;17.92;;;8.05;;
79631;SDS011;69108;41.120;16.874;2023-06-14T12:09:06;17.67;;;7.82;;
79631;SDS011;69108;41.120;16.874;2023-06-14T12:11:39;16.88;;;8.60;;
79631;SDS011;69108;41.120;16.874;2023-06-14T12:14:07;17.45;;;7.90;;
79631;SDS011;69108;41.120;16.874;2023-06-14T12:16:36;15.63;;;8.85;;
79631;SDS011;69108;41.120;16.874;2023-06-14T12:19:09;19.35;;;9.50;;
79631;SDS011;69108;41.120;16.874;2023-06-14T12:21:41;26.00;;;11.70;;
79631;SDS011;69108;41.120;16.874;2023-06-14T12:24:12;21.75;;;10.70;;
79631;SDS011;69108;41.120;16.874;2023-06-14T12:26:39;18.27;;;8.65;;
79631;SDS011;69108;41.120;16.874;2023-06-14T12:29:07;19.77;;;9.77;;
79631;SDS011;69108;41.120;16.874;2023-06-14T12:31:37;17.63;;;9.30;;
79631;SDS011;69108;41.120;16.874;2023-06-14T12:34:06;21.65;;;10.45;;
79631;SDS011;69108;41.120;16.874;2023-06-14T12:36:33;18.45;;;9.50;;
79631;SDS011;69108;41.120;16.874;2023-06-14T12:39:06;19.83;;;10.10;;
79631;SDS011;69108;41.120;16.874;2023-06-14T12:41:33;20.77;;;9.15;;
79631;SDS011;69108;41.120;16.874;2023-06-14T12:44:00;14.77;;;7.38;;
79631;SDS011;69108;41.120;16.874;2023-06-14T12:46:29;18.85;;;9.77;;
79631;SDS011;69108;41.120;16.874;2023-06-14T12:48:57;16.98;;;8.23;;
79631;SDS011;69108;41.120;16.874;2023-06-14T12:51:24;15.10;;;7.47;;
79631;SDS011;69108;41.120;16.874;2023-06-14T12:53:51;19.02;;;8.85;;
79631;SDS011;69108;41.120;16.874;2023-06-14T12:56:20;22.45;;;8.45;;
79631;SDS011;69108;41.120;16.874;2023-06-14T12:58:47;19.02;;;8.55;;
79631;SDS011;69108;41.120;16.874;2023-06-14T13:01:14;13.57;;;9.20;;
79631;SDS011;69108;41.120;16.874;2023-06-14T13:03:41;15.45;;;8.10;;
79631;SDS011;69108;41.120;16.874;2023-06-14T13:06:07;16.98;;;9.15;;
79631;SDS011;69108;41.120;16.874;2023-06-14T13:08:34;17.85;;;8.73;;
79631;SDS011;69108;41.120;16.874;2023-06-14T13:11:01;19.75;;;8.88;;
79631;SDS011;69108;41.120;16.874;2023-06-14T13:13:30;15.82;;;7.80;;
79631;SDS011;69108;41.120;16.874;2023-06-14T13:15:57;19.38;;;8.23;;
79631;SDS011;69108;41.120;16.874;2023-06-14T13:18:24;18.75;;;7.88;;
79631;SDS011;69108;41.120;16.874;2023-06-14T13:23:18;14.98;;;7.47;;
79631;SDS011;69108;41.120;16.874;2023-06-14T13:25:45;17.77;;;8.05;;
79631;SDS011;69108;41.120;16.874;2023-06-14T13:28:13;14.98;;;7.40;;
79631;SDS011;69108;41.120;16.874;2023-06-14T13:30:42;12.25;;;6.30;;
79631;SDS011;69108;41.120;16.874;2023-06-14T13:33:10;14.95;;;6.82;;
79631;SDS011;69108;41.120;16.874;2023-06-14T13:35:36;13.98;;;7.28;;
79631;SDS011;69108;41.120;16.874;2023-06-14T13:38:03;15.10;;;7.30;;
79631;SDS011;69108;41.120;16.874;2023-06-14T13:40:30;20.75;;;8.23;;
79631;SDS011;69108;41.120;16.874;2023-06-14T13:42:57;13.65;;;6.03;;
79631;SDS011;69108;41.120;16.874;2023-06-14T13:45:24;12.23;;;6.82;;
79631;SDS011;69108;41.120;16.874;2023-06-14T13:47:52;11.95;;;6.93;;
79631;SDS011;69108;41.120;16.874;2023-06-14T13:50:20;13.18;;;7.30;;
79631;SDS011;69108;41.120;16.874;2023-06-14T13:52:47;12.65;;;6.00;;
79631;SDS011;69108;41.120;16.874;2023-06-14T13:55:13;13.40;;;6.65;;
79631;SDS011;69108;41.120;16.874;2023-06-14T13:57:43;11.27;;;5.95;;
79631;SDS011;69108;41.120;16.874;2023-06-14T14:00:11;14.25;;;6.88;;
79631;SDS011;69108;41.120;16.874;2023-06-14T14:02:38;10.90;;;4.93;;
79631;SDS011;69108;41.120;16.874;2023-06-14T14:05:08;9.25;;;5.30;;
79631;SDS011;69108;41.120;16.874;2023-06-14T14:07:35;10.25;;;5.88;;
79631;SDS011;69108;41.120;16.874;2023-06-14T14:10:03;9.07;;;4.97;;
79631;SDS011;69108;41.120;16.874;2023-06-14T14:12:30;10.43;;;5.63;;
79631;SDS011;69108;41.120;16.874;2023-06-14T14:14:57;8.18;;;4.88;;
79631;SDS011;69108;41.120;16.874;2023-06-14T14:17:24;7.03;;;4.93;;
79631;SDS011;69108;41.120;16.874;2023-06-14T14:19:52;7.82;;;4.45;;
79631;SDS011;69108;41.120;16.874;2023-06-14T14:22:20;7.97;;;4.40;;
79631;SDS011;69108;41.120;16.874;2023-06-14T14:24:47;8.77;;;4.43;;
79631;SDS011;69108;41.120;16.874;2023-06-14T14:27:14;8.52;;;4.95;;
79631;SDS011;69108;41.120;16.874;2023-06-14T14:29:41;6.63;;;4.40;;
79631;SDS011;69108;41.120;16.874;2023-06-14T14:32:08;8.20;;;4.25;;
79631;SDS011;69108;41.120;16.874;2023-06-14T14:34:39;8.38;;;5.05;;
79631;SDS011;69108;41.120;16.874;2023-06-14T14:37:06;8.25;;;4.13;;
79631;SDS011;69108;41.120;16.874;2023-06-14T14:39:34;9.65;;;5.35;;
79631;SDS011;69108;41.120;16.874;2023-06-14T14:42:04;10.73;;;5.00;;
79631;SDS011;69108;41.120;16.874;2023-06-14T14:44:32;8.07;;;5.40;;
79631;SDS011;69108;41.120;16.874;2023-06-14T14:47:00;8.38;;;4.53;;
79631;SDS011;69108;41.120;16.874;2023-06-14T14:49:27;9.80;;;6.18;;
79631;SDS011;69108;41.120;16.874;2023-06-14T14:51:55;9.90;;;5.43;;
79631;SDS011;69108;41.120;16.874;2023-06-14T14:54:22;9.80;;;5.07;;
79631;SDS011;69108;41.120;16.874;2023-06-14T14:56:51;10.32;;;6.38;;
79631;SDS011;69108;41.120;16.874;2023-06-14T14:59:19;8.70;;;4.88;;
79631;SDS011;69108;41.120;16.874;2023-06-14T15:01:47;10.13;;;5.13;;
79631;SDS011;69108;41.120;16.874;2023-06-14T15:04:13;8.25;;;5.82;;
79631;SDS011;69108;41.120;16.874;2023-06-14T15:06:40;7.93;;;5.10;;
79631;SDS011;69108;41.120;16.874;2023-06-14T15:09:08;11.00;;;5.75;;
79631;SDS011;69108;41.120;16.874;2023-06-14T15:11:35;8.63;;;4.95;;
79631;SDS011;69108;41.120;16.874;2023-06-14T15:14:03;11.02;;;5.07;;
79631;SDS011;69108;41.120;16.874;2023-06-14T15:16:30;10.32;;;5.25;;
79631;SDS011;69108;41.120;16.874;2023-06-14T15:18:57;10.20;;;5.35;;